Latest Weather Observations for The Monument

IDQ60801

Issued at 11:02 pm EST Monday 11 December 2017 (issued every 30 minutes, with the page automatically refreshed every 10 minutes)

About weather observations | Map of weather stations | Latest weather observations for QLD | Other Formats
Station Details ID: 037034 Name: THE MONUMENT AIRPORT Lat: -21.81 Lon: 139.93 Height: 288.4 m
Data from the previous 72 hours. | See also: Recent months at The Monument
Date/Time
EST
Temp
°C
App
Temp
°C
Dew
Point
°C
Rel
Hum
%
Delta-T
°C
Wind Press
QNH
hPa
Press
MSL
hPa
Rain since
9am
mm
Dir  Spd
km/h
Gust
km/h
Spd
kts
Gust
kts
11/11:00pm 30.1 27.1 4.0 19 13.5 SSE 9 11 5 6 1010.8 1008.6 0.0
11/10:30pm 31.4 28.0 4.2 18 14.3 ESE 11 13 6 7 1010.4 1008.2 0.0
11/10:00pm 31.5 27.8 4.3 18 14.3 ESE 13 15 7 8 1010.1 1007.9 0.0
11/09:30pm 30.8 27.4 3.8 18 14.0 E 11 11 6 6 1009.8 1007.5 0.0
11/09:00pm 31.9 28.5 3.8 17 14.7 ESE 11 13 6 7 1009.6 1007.3 0.0
11/08:30pm 33.0 29.8 2.9 15 15.6 ESE 9 11 5 6 1009.2 1007.0 0.0
11/08:00pm 34.4 30.8 3.1 14 16.4 SE 11 19 6 10 1009.0 1006.8 0.0
11/07:30pm 35.2 31.7 1.5 12 17.3 SE 9 11 5 6 1008.6 1006.4 0.0
11/07:00pm 37.6 33.1 2.1 11 18.7 SE 15 19 8 10 1008.4 1006.2 0.0
11/06:30pm 38.8 34.1 3.1 11 19.2 SE 17 24 9 13 1008.2 1006.0 0.0
11/06:00pm 39.7 36.4 2.4 10 19.9 SSE 9 17 5 9 1007.9 1005.7 0.0
11/05:30pm 39.9 35.6 1.1 9 20.3 SE 13 26 7 14 1007.9 1005.7 0.0
11/05:00pm 40.4 35.7 2.9 10 20.3 SSE 17 30 9 16 1007.9 1005.7 0.0
11/04:30pm 39.8 35.7 2.5 10 19.9 SSW 13 24 7 13 1008.0 1005.8 0.0
11/04:00pm 39.7 36.2 3.7 11 19.6 ESE 11 19 6 10 1008.1 1005.9 0.0
11/03:30pm 38.6 35.0 2.9 11 19.1 ENE 11 17 6 9 1008.4 1006.2 0.0
11/03:00pm 39.2 36.6 3.4 11 19.4 E 6 20 3 11 1008.7 1006.5 0.0
11/02:30pm 39.3 35.4 3.4 11 19.4 NE 13 20 7 11 1009.2 1007.0 0.0
11/02:00pm 39.7 36.2 3.7 11 19.6 NNW 11 20 6 11 1009.7 1007.4 0.0
11/01:30pm 39.0 34.2 4.4 12 19.0 NW 19 33 10 18 1010.3 1008.1 0.0
11/01:00pm 39.0 35.9 5.6 13 18.6 WNW 11 20 6 11 1010.9 1008.7 0.0
11/12:30pm 39.4 36.8 5.9 13 18.8 E 9 22 5 12 1011.4 1009.2 0.0
11/12:00pm 37.8 34.5 4.7 13 18.1 NE 11 24 6 13 1012.0 1009.8 0.0
11/11:30am 38.0 33.8 5.9 14 17.9 ENE 17 33 9 18 1012.4 1010.2 0.0
11/11:00am 37.4 33.6 9.1 18 16.5 NNE 19 33 10 18 1012.9 1010.7 0.0
11/10:30am 36.4 32.2 9.8 20 15.6 NNE 22 35 12 19 1013.3 1011.1 0.0
11/10:00am 35.8 32.5 10.8 22 14.9 NNE 19 32 10 17 1013.4 1011.2 0.0
11/09:30am 33.9 29.4 9.9 23 14.0 NNE 24 33 13 18 1013.6 1011.4 0.0
11/09:00am 33.3 29.4 8.7 22 14.0 NE 19 24 10 13 1013.7 1011.5 0.0
11/08:30am 31.5 26.7 7.2 22 13.4 ENE 22 30 12 16 1013.8 1011.6 0.0
11/08:00am 30.2 25.5 6.1 22 13.0 ENE 20 30 11 16 1013.7 1011.5 0.0
11/07:30am 29.0 25.4 3.1 19 13.1 E 11 19 6 10 1013.4 1011.2 0.0
11/07:00am 25.5 22.3 -0.5 18 12.1 ESE 6 11 3 6 1012.9 1010.7 0.0
11/06:30am 21.5 19.4 -0.5 23 9.9 CALM 0 0 0 0 1012.7 1010.5 0.0
11/06:00am 19.3 17.1 -1.7 24 9.1 CALM 0 0 0 0 1012.6 1010.4 0.0
11/05:30am 20.1 17.8 -2.3 22 9.6 CALM 0 6 0 3 1012.3 1010.1 0.0
11/05:00am 21.8 17.8 -2.1 20 10.5 W 9 11 5 6 1011.9 1009.7 0.0
11/04:30am 22.3 18.8 -1.7 20 10.6 S 7 9 4 5 1011.8 1009.6 0.0
11/04:00am 22.6 18.2 -2.2 19 10.9 NE 11 15 6 8 1011.8 1009.6 0.0
11/03:30am 23.6 19.9 -2.8 17 11.6 SSE 7 11 4 6 1011.2 1009.0 0.0
11/03:00am 24.6 20.1 -2.9 16 12.1 S 11 13 6 7 1011.2 1009.0 0.0
11/02:30am 25.5 21.0 -3.0 15 12.6 S 11 15 6 8 1011.3 1009.1 0.0
11/02:00am 26.6 21.4 -3.1 14 13.3 S 15 19 8 10 1011.5 1009.3 0.0
11/01:30am 27.2 22.0 -2.6 14 13.5 S 15 20 8 11 1011.7 1009.5 0.0
11/01:00am 27.5 22.4 -2.3 14 13.6 S 15 19 8 10 1011.8 1009.6 0.0
11/12:30am 28.7 23.2 -2.4 13 14.3 S 17 22 9 12 1012.2 1010.0 0.0
11/12:00am 30.1 24.0 -2.4 12 15.1 S 20 28 11 15 1012.4 1010.2 0.0
 
Date/Time
EST
Temp
°C
App
Temp
°C
Dew
Point
°C
Rel
Hum
%
Delta-T
°C
Wind Press
QNH
hPa
Press
MSL
hPa
Rain since
9am
mm
Dir  Spd
km/h
Gust
km/h
Spd
kts
Gust
kts
10/11:30pm 28.0 23.1 -3.0 13 14.0 S 13 17 7 9 1012.6 1010.4 0.0
10/11:00pm 27.6 22.6 -4.3 12 14.1 S 13 15 7 8 1012.7 1010.5 0.0
10/10:30pm 28.2 23.6 -3.9 12 14.3 S 11 15 6 8 1012.6 1010.4 0.0
10/10:00pm 28.8 24.1 -4.6 11 14.8 S 11 13 6 7 1012.6 1010.4 0.0
10/09:30pm 29.5 24.9 -4.0 11 15.1 S 11 13 6 7 1012.5 1010.3 0.0
10/09:00pm 30.1 25.2 -3.6 11 15.3 SSE 13 15 7 8 1012.2 1010.0 0.0
10/08:30pm 31.7 26.8 -3.6 10 16.3 S 13 15 7 8 1011.9 1009.7 0.0
10/08:00pm 33.0 27.8 -2.6 10 16.9 S 15 17 8 9 1011.5 1009.3 0.0
10/07:30pm 34.3 29.4 -3.1 9 17.7 S 13 17 7 9 1011.2 1009.0 0.0
10/07:00pm 36.5 30.5 -1.4 9 18.7 S 20 30 11 16 1010.9 1008.7 0.0
10/06:30pm 37.7 31.8 -0.6 9 19.3 SSE 20 28 11 15 1010.5 1008.3 0.0
10/06:00pm 38.6 32.8 0.1 9 19.7 SSE 20 26 11 14 1010.1 1007.9 0.0
10/05:30pm 39.2 33.7 0.6 9 20.0 SSW 19 32 10 17 1010.1 1007.9 0.0
10/05:00pm 39.5 34.0 0.8 9 20.2 S 19 28 10 15 1010.0 1007.8 0.0
10/04:30pm 40.0 34.4 1.1 9 20.4 SSW 20 33 11 18 1010.1 1007.9 0.0
10/04:00pm 40.1 35.4 1.2 9 20.5 WSW 15 26 8 14 1010.3 1008.1 0.0
10/03:30pm 40.2 35.9 1.3 9 20.5 SW 13 24 7 13 1010.5 1008.3 0.0
10/03:00pm 39.9 36.2 2.5 10 20.0 SSW 11 24 6 13 1010.8 1008.6 0.0
10/02:30pm 39.7 35.2 2.4 10 19.9 SSE 15 20 8 11 1011.3 1009.1 0.0
10/02:00pm 39.1 36.3 3.3 11 19.3 W 7 13 4 7 1011.7 1009.5 0.0
10/01:30pm 39.1 34.7 4.5 12 19.0 SSE 17 30 9 16 1012.1 1009.9 0.0
10/01:00pm 37.8 34.5 4.7 13 18.1 W 11 19 6 10 1012.4 1010.2 0.0
10/12:30pm 37.8 33.5 3.5 12 18.4 SSE 15 28 8 15 1012.8 1010.6 0.0
10/12:00pm 37.7 34.4 4.6 13 18.1 E 11 20 6 11 1013.2 1011.0 0.0
10/11:30am 37.0 32.7 5.1 14 17.5 ESE 17 28 9 15 1013.6 1011.4 0.0
10/11:00am 36.9 33.4 7.0 16 16.9 ENE 15 20 8 11 1014.0 1011.8 0.0
10/10:30am 36.0 32.5 5.3 15 16.8 E 13 20 7 11 1014.4 1012.2 0.0
10/10:00am 34.5 29.8 3.1 14 16.5 ESE 17 24 9 13 1014.7 1012.5 0.0
10/09:30am 32.5 28.3 1.6 14 15.6 SE 13 22 7 12 1014.7 1012.5 0.0
10/09:00am 30.5 26.0 0.0 14 14.8 SE 13 22 7 12 1014.8 1012.6 -
10/08:30am 29.6 24.7 -0.7 14 14.4 SE 15 19 8 10 1014.9 1012.7 -
10/08:00am 28.2 23.6 -0.9 15 13.7 SSE 13 20 7 11 1014.7 1012.5 -
10/07:30am 26.7 22.5 -1.2 16 12.9 SSE 11 17 6 9 1014.7 1012.5 -
10/07:00am 24.2 20.2 -2.4 17 11.8 SSW 9 11 5 6 1014.7 1012.5 -
10/06:30am 22.3 18.4 -1.7 20 10.6 SW 9 11 5 6 1014.5 1012.3 -
10/06:00am 20.8 16.4 -2.3 21 10.0 SSW 11 13 6 7 1014.1 1011.9 -
10/05:30am 21.4 17.4 -2.5 20 10.3 SSW 9 11 5 6 1013.9 1011.7 -
10/05:00am 22.2 17.8 -2.5 19 10.7 SSE 11 15 6 8 1013.7 1011.5 -
10/04:30am 23.2 18.7 -3.2 17 11.4 S 11 13 6 7 1013.4 1011.2 -
10/04:00am 23.8 18.6 -2.7 17 11.6 SSE 15 20 8 11 1013.1 1010.8 -
10/03:30am 24.3 18.8 -2.3 17 11.8 S 17 20 9 11 1012.9 1010.7 -
10/03:00am 23.9 19.1 -2.6 17 11.7 S 13 15 7 8 1013.1 1010.8 0.0
10/02:30am 24.5 19.8 -2.1 17 11.9 S 13 15 7 8 1013.3 1011.1 -
10/02:00am 25.1 20.3 -2.5 16 12.3 S 13 15 7 8 1013.3 1011.1 -
10/01:30am 25.8 21.1 -1.9 16 12.6 S 13 17 7 9 1013.6 1011.4 -
10/01:00am 26.9 21.8 -1.9 15 13.2 S 15 20 8 11 1013.7 1011.5 -
10/12:30am 26.7 22.1 -1.2 16 12.9 S 13 17 7 9 1013.8 1011.6 -
10/12:00am 26.5 22.4 -0.5 17 12.6 S 11 15 6 8 1014.0 1011.8 -
 
Date/Time
EST
Temp
°C
App
Temp
°C
Dew
Point
°C
Rel
Hum
%
Delta-T
°C
Wind Press
QNH
hPa
Press
MSL
hPa
Rain since
9am
mm
Dir  Spd
km/h
Gust
km/h
Spd
kts
Gust
kts
09/11:30pm 27.5 23.4 -0.5 16 13.2 S 11 13 6 7 1014.1 1011.9 -
09/11:00pm 28.5 24.0 -0.6 15 13.8 SSW 13 17 7 9 1014.3 1012.1 -
09/10:30pm 29.5 24.9 -0.8 14 14.4 S 13 17 7 9 1014.3 1012.1 -
09/10:00pm 30.5 25.3 0.0 14 14.8 S 17 24 9 13 1014.1 1011.9 -
09/09:30pm 31.3 25.8 0.6 14 15.1 S 19 24 10 13 1013.8 1011.6 -
09/09:00pm 31.9 26.9 1.1 14 15.4 S 17 22 9 12 1013.5 1011.3 -
09/08:30pm 32.8 27.3 0.8 13 16.0 S 19 28 10 15 1012.9 1010.7 -
09/08:00pm 33.2 28.3 2.1 14 15.9 S 17 22 9 12 1012.7 1010.5 -
09/07:30pm 34.0 28.9 2.8 14 16.2 S 19 24 10 13 1012.4 1010.2 -
09/07:00pm 35.2 30.0 3.7 14 16.7 S 20 30 11 16 1012.1 1009.9 -
09/06:30pm 36.3 30.3 3.5 13 17.5 S 24 35 13 19 1011.7 1009.5 -
09/06:00pm 37.0 32.1 4.0 13 17.8 S 19 32 10 17 1011.5 1009.3 -
09/05:30pm 37.6 32.4 3.4 12 18.3 SSW 20 32 11 17 1011.4 1009.2 -
09/05:00pm 38.0 33.0 3.7 12 18.5 S 19 26 10 14 1011.3 1009.1 -
09/04:30pm 38.0 32.8 3.7 12 18.5 SSE 20 35 11 19 1011.4 1009.2 -
09/04:00pm 38.2 33.0 3.8 12 18.6 S 20 39 11 21 1011.6 1009.4 -
09/03:30pm 37.8 - 3.5 12 18.4 - - - - - 1011.9 1009.7 -
09/02:00pm 37.4 32.6 4.4 13 17.9 SE 19 26 10 14 1013.2 1011.0 -
09/01:00pm 36.0 30.9 4.3 14 17.1 SE 20 32 11 17 1014.1 1011.9 0.0
09/12:30pm 36.2 31.2 4.5 14 17.1 SSE 20 33 11 18 1014.4 1012.2 0.0
09/12:00pm 35.6 30.3 5.0 15 16.6 SE 22 35 12 19 1014.9 1012.7 0.0
09/11:30am 34.7 29.4 5.2 16 16.0 SSE 22 37 12 20 1015.0 1012.8 0.0
09/11:00am 34.2 28.7 5.7 17 15.5 SE 24 37 13 20 1015.3 1013.1 0.0
09/10:30am 33.7 28.2 6.1 18 15.1 SE 24 35 13 19 1015.5 1013.3 0.0
09/10:00am 32.0 26.6 6.2 20 14.0 SE 24 35 13 19 1015.7 1013.5 0.0
09/09:30am 31.0 24.6 5.4 20 13.7 SE 28 39 15 21 1016.0 1013.8 0.0
09/09:00am 29.5 23.4 4.9 21 12.9 SSE 26 33 14 18 1016.1 1013.9 0.0
09/08:30am 28.2 22.0 4.5 22 12.3 SSE 26 35 14 19 1016.1 1013.9 0.0
09/08:00am 27.0 21.5 4.1 23 11.7 SSE 22 30 12 16 1015.8 1013.6 0.0
09/07:30am 26.0 20.1 3.9 24 11.2 SSE 24 35 13 19 1015.5 1013.3 0.0
09/07:00am 25.0 20.0 3.6 25 10.7 S 19 26 10 14 1015.1 1012.9 0.0
09/06:30am 24.4 19.5 4.2 27 10.1 SSE 19 28 10 15 1014.7 1012.5 0.0
09/06:00am 23.8 19.8 4.7 29 9.6 SSE 15 24 8 13 1014.5 1012.3 0.0
09/05:30am 24.2 19.9 5.1 29 9.7 SSE 17 26 9 14 1014.1 1011.9 0.0
09/05:00am 24.8 20.0 5.6 29 9.9 SSE 20 28 11 15 1013.8 1011.6 0.0
09/04:30am 25.6 20.1 5.8 28 10.3 SSE 24 39 13 21 1013.5 1011.3 0.0
09/04:00am 26.1 20.7 6.2 28 10.5 SSE 24 41 13 22 1013.4 1011.2 0.0
09/03:30am 26.7 21.0 6.7 28 10.7 S 26 35 14 19 1013.1 1010.8 0.0
09/03:00am 27.1 21.4 6.5 27 11.0 S 26 35 14 19 1012.7 1010.5 0.0
09/02:30am 27.4 22.1 6.8 27 11.0 S 24 37 13 20 1012.5 1010.3 0.0
09/02:00am 27.6 21.8 6.4 26 11.3 S 26 39 14 21 1012.1 1009.9 0.0
09/01:30am 28.1 21.1 6.2 25 11.7 S 32 43 17 23 1012.1 1009.9 0.0
09/01:00am 28.3 22.2 6.4 25 11.7 S 28 37 15 20 1012.1 1009.9 0.0
09/12:30am 28.4 22.9 5.9 24 11.9 S 24 35 13 19 1012.6 1010.4 0.0
09/12:00am 27.8 23.5 5.4 24 11.7 S 17 24 9 13 1012.7 1010.5 0.0
 
Date/Time
EST
Temp
°C
App
Temp
°C
Dew
Point
°C
Rel
Hum
%
Delta-T
°C
Wind Press
QNH
hPa
Press
MSL
hPa
Rain since
9am
mm
Dir  Spd
km/h
Gust
km/h
Spd
kts
Gust
kts
08/11:30pm 26.9 23.9 4.0 23 11.6 S 9 15 5 8 1012.8 1010.6 0.0

Other Formats:

Comma delimited format used in spreadsheet applications
http://www.bom.gov.au/fwo/IDQ60801/IDQ60801.94336.axf

JavaScript Object Notation format (JSON) in row-major order
http://www.bom.gov.au/fwo/IDQ60801/IDQ60801.94336.json